Time;durP1;ratioP1;P1;durP2;ratioP2;P2;SDS_P1;SDS_P2;PMS_P1;PMS_P2;Temp;Humidity;BMP_temperature;BMP_pressure;BME280_temperature;BME280_humidity;BME280_pressure;Samples;Min_cycle;Max_cycle;Signal;HPM_P1;HPM_P2
2022/06/03 00:02:08;;;;;;;4.20;4.00;;;;;;;11.80;69.29;101419.59;6051785;23;20026;-70
2022/06/03 00:05:04;;;;;;;4.35;4.15;;;;;;;11.89;69.92;101450.78;6055421;23;20476;-69
2022/06/03 00:08:08;;;;;;;4.30;4.10;;;;;;;11.76;71.29;101470.63;5920322;23;20024;-68
2022/06/03 00:10:59;;;;;;;4.40;4.20;;;;;;;11.69;72.25;101456.06;6036790;23;20566;-68
2022/06/03 00:13:44;;;;;;;4.28;4.07;;;;;;;11.57;73.53;101453.03;6021036;23;20097;-70
2022/06/03 00:16:16;;;;;;;5.72;5.53;;;;;;;11.48;74.63;101457.84;6056581;23;20054;-69
2022/06/03 00:19:15;;;;;;;4.20;4.00;;;;;;;11.23;76.60;101426.53;6007411;23;20053;-69
2022/06/03 00:22:04;;;;;;;4.60;4.40;;;;;;;11.30;77.02;101451.63;6054760;23;20094;-68
2022/06/03 00:24:46;;;;;;;4.35;4.15;;;;;;;11.22;77.67;101449.31;6032573;23;20151;-70
2022/06/03 00:27:37;;;;;;;5.50;5.25;;;;;;;11.15;78.00;101453.97;6044987;23;20155;-71
2022/06/03 00:30:21;;;;;;;5.50;5.30;;;;;;;11.08;78.14;101452.53;6025689;23;20053;-70
2022/06/03 00:33:13;;;;;;;4.80;4.50;;;;;;;11.04;78.61;101450.94;6047131;23;20026;-68
2022/06/03 00:35:54;;;;;;;4.32;4.13;;;;;;;10.82;79.28;101429.13;6002448;23;20018;-69
2022/06/03 00:38:50;;;;;;;4.20;4.00;;;;;;;9.77;79.42;101263.66;6029322;23;20053;-68
2022/06/03 00:41:29;;;;;;;4.53;4.32;;;;;;;10.86;80.16;101444.69;6029120;23;20035;-68
2022/06/03 00:44:41;;;;;;;4.30;4.10;;;;;;;10.80;79.91;101442.31;6060860;23;20006;-71
2022/06/03 00:47:59;;;;;;;5.68;5.47;;;;;;;10.75;80.91;101439.88;6025442;23;20029;-70
2022/06/03 00:50:51;;;;;;;4.40;4.20;;;;;;;10.72;81.48;101447.91;6033230;23;20021;-71
2022/06/03 00:53:27;;;;;;;4.38;4.18;;;;;;;10.69;81.61;101436.66;6042853;23;20023;-70
2022/06/03 00:56:15;;;;;;;4.43;4.22;;;;;;;10.64;81.89;101442.09;6058311;23;20011;-73
2022/06/03 00:59:04;;;;;;;4.55;4.35;;;;;;;10.45;82.34;101420.13;6024378;23;20469;-69
2022/06/03 01:01:39;;;;;;;4.30;4.10;;;;;;;10.51;83.50;101444.34;6059306;23;21069;-68
2022/06/03 01:04:43;;;;;;;5.47;5.28;;;;;;;10.41;84.12;101442.19;6028818;23;20035;-70
2022/06/03 01:07:24;;;;;;;7.90;7.50;;;;;;;10.35;84.64;101440.63;6048119;23;20095;-69
2022/06/03 01:10:09;;;;;;;4.28;4.07;;;;;;;10.27;85.64;101435.66;6022273;23;20019;-68
2022/06/03 01:12:48;;;;;;;4.15;3.95;;;;;;;10.21;85.45;101430.66;6058254;23;20194;-68
2022/06/03 01:15:59;;;;;;;5.50;5.30;;;;;;;10.16;84.96;101435.19;6014600;23;20511;-65
2022/06/03 01:18:41;;;;;;;4.22;4.03;;;;;;;10.12;85.99;101431.00;6048618;23;20057;-66
2022/06/03 01:21:45;;;;;;;5.35;5.15;;;;;;;10.10;86.83;101422.34;6023541;23;20688;-65
2022/06/03 01:24:49;;;;;;;5.53;5.25;;;;;;;10.03;87.45;101423.50;6056918;23;20049;-66
2022/06/03 01:27:44;;;;;;;4.20;4.00;;;;;;;9.95;87.09;101423.78;6017047;23;20506;-66
2022/06/03 01:30:21;;;;;;;5.47;5.28;;;;;;;9.80;86.44;101398.97;6050852;23;20147;-66
2022/06/03 01:33:06;;;;;;;4.22;4.03;;;;;;;9.92;86.82;101429.13;6030252;23;20046;-66
2022/06/03 01:35:48;;;;;;;4.18;3.97;;;;;;;9.86;87.81;101422.38;6043236;23;20186;-65
2022/06/03 01:38:44;;;;;;;4.53;4.25;;;;;;;9.85;88.29;101422.44;6024482;23;20404;-65
2022/06/03 01:41:24;;;;;;;5.60;5.40;;;;;;;9.83;87.94;101425.09;6048973;23;20060;-65
2022/06/03 01:44:12;;;;;;;4.05;3.85;;;;;;;9.59;87.38;101383.16;6023927;23;20443;-65
2022/06/03 01:47:16;;;;;;;4.13;3.92;;;;;;;9.61;87.56;101390.13;6054765;23;20082;-65
2022/06/03 01:49:43;;;;;;;4.20;4.00;;;;;;;9.75;88.05;101417.50;6034735;23;20034;-65
2022/06/03 01:53:05;;;;;;;5.63;5.43;;;;;;;9.74;87.66;101420.19;6052396;23;20093;-65
2022/06/03 01:56:02;;;;;;;4.20;4.00;;;;;;;9.72;88.86;101409.78;5959210;23;20086;-65
2022/06/03 01:58:38;;;;;;;4.00;3.80;;;;;;;9.73;88.55;101411.47;6057725;23;20022;-65
2022/06/03 02:01:32;;;;;;;5.65;5.45;;;;;;;9.72;88.02;101407.16;6028074;23;20034;-65
2022/06/03 02:04:14;;;;;;;5.25;4.85;;;;;;;9.72;88.85;101409.78;6041950;23;20022;-65
2022/06/03 02:07:08;;;;;;;4.30;4.10;;;;;;;9.70;88.84;101406.38;6030729;23;20374;-66
2022/06/03 02:10:12;;;;;;;4.10;3.90;;;;;;;9.67;89.79;101400.38;6049953;23;20030;-65
2022/06/03 02:12:56;;;;;;;4.15;3.95;;;;;;;9.57;91.31;101398.09;6011323;23;20026;-66
2022/06/03 02:16:00;;;;;;;4.60;4.40;;;;;;;9.52;91.92;101393.91;6047171;23;20022;-66
2022/06/03 02:18:59;;;;;;;4.50;4.30;;;;;;;9.45;92.66;101392.44;6032533;23;20257;-65
2022/06/03 02:21:52;;;;;;;4.30;4.10;;;;;;;9.40;92.76;101392.59;6024952;23;20057;-65
2022/06/03 02:24:47;;;;;;;4.10;3.90;;;;;;;9.33;91.77;101385.88;6021685;23;20103;-65
2022/06/03 02:27:48;;;;;;;4.85;4.65;;;;;;;9.28;91.80;101385.19;6037166;23;20031;-68
2022/06/03 02:30:36;;;;;;;4.40;4.20;;;;;;;9.23;91.75;101381.88;6024742;23;20093;-68
2022/06/03 02:33:18;;;;;;;5.40;5.20;;;;;;;9.21;92.24;101384.56;6037874;23;20027;-68
2022/06/03 02:35:47;;;;;;;4.20;4.00;;;;;;;9.21;92.71;101387.16;6019046;23;20019;-69
2022/06/03 02:38:26;;;;;;;5.90;5.65;;;;;;;9.24;92.23;101378.34;6014660;23;20135;-69
2022/06/03 02:41:28;;;;;;;4.20;4.00;;;;;;;9.29;91.64;101386.91;5995561;23;20067;-69
2022/06/03 02:44:33;;;;;;;4.10;3.90;;;;;;;9.29;92.24;101377.28;6026654;23;20029;-69
2022/06/03 02:47:06;;;;;;;4.85;4.65;;;;;;;9.31;92.35;101374.59;5995903;23;20359;-70
2022/06/03 02:50:01;;;;;;;4.45;4.15;;;;;;;9.31;92.16;101375.44;6031662;23;20033;-68
2022/06/03 02:52:55;;;;;;;4.28;4.07;;;;;;;9.34;92.42;101372.72;5978131;23;21040;-68
2022/06/03 02:56:02;;;;;;;3.88;3.75;;;;;;;9.18;92.82;101342.75;6007495;23;20023;-67
2022/06/03 02:58:54;;;;;;;4.30;4.10;;;;;;;9.32;92.51;101364.09;5993262;23;20027;-68
2022/06/03 03:01:39;;;;;;;4.10;3.90;;;;;;;9.30;92.46;101362.41;6000612;23;20026;-68
2022/06/03 03:04:43;;;;;;;5.75;5.50;;;;;;;9.27;93.51;101363.38;5993892;23;20176;-64
2022/06/03 03:07:37;;;;;;;5.43;5.22;;;;;;;9.26;93.02;101373.91;6028216;23;20082;-69
2022/06/03 03:10:09;;;;;;;5.47;5.28;;;;;;;9.26;93.31;101368.66;6010045;23;20023;-69
2022/06/03 03:13:00;;;;;;;4.07;3.88;;;;;;;9.24;nan;101376.59;6006184;23;20095;-70
2022/06/03 03:15:41;;;;;;;3.90;3.80;;;;;;;9.24;93.79;101380.97;6028513;23;20417;-69
2022/06/03 03:18:35;;;;;;;5.40;5.20;;;;;;;9.22;94.05;101381.03;6002683;23;20018;-69
2022/06/03 03:21:11;;;;;;;5.13;4.93;;;;;;;9.21;94.47;101378.47;6029578;23;20018;-65
2022/06/03 03:23:44;;;;;;;4.00;3.80;;;;;;;9.19;95.33;101371.50;6002429;23;20110;-66
2022/06/03 03:26:38;;;;;;;6.03;5.75;;;;;;;9.17;94.99;101369.84;6029514;23;20026;-65
2022/06/03 03:29:10;;;;;;;5.75;5.50;;;;;;;9.15;94.97;101379.53;6001339;23;20134;-66
2022/06/03 03:31:55;;;;;;;;;;;;;;;9.14;96.37;101368.22;6025864;23;20019;-63
2022/06/03 03:34:41;;;;;;;4.10;3.90;;;;;;;9.14;95.89;101375.19;6025733;23;19913;-65
2022/06/03 03:37:42;;;;;;;5.60;5.40;;;;;;;9.17;96.67;101373.31;6025554;23;20094;-65
2022/06/03 03:40:30;;;;;;;5.38;5.18;;;;;;;9.21;96.46;101362.75;5993250;23;20402;-65
2022/06/03 03:43:02;;;;;;;4.13;3.92;;;;;;;9.25;96.95;101372.22;6024444;23;20025;-64
2022/06/03 03:45:51;;;;;;;4.10;3.90;;;;;;;9.10;96.56;101345.66;5998677;23;20457;-64
2022/06/03 03:49:02;;;;;;;4.10;3.90;;;;;;;9.29;97.49;101365.94;6027408;23;20216;-65
2022/06/03 03:51:40;;;;;;;4.20;4.00;;;;;;;9.31;97.29;101366.75;5948347;23;20026;-65
2022/06/03 03:54:31;;;;;;;5.28;5.07;;;;;;;9.33;96.25;101372.78;5996291;23;20090;-64
2022/06/03 03:57:19;;;;;;;4.43;4.22;;;;;;;9.34;95.90;101372.72;6028691;23;20019;-67
2022/06/03 04:00:11;;;;;;;3.80;3.70;;;;;;;9.40;95.17;101369.00;6025074;23;20153;-69
2022/06/03 04:03:02;;;;;;;3.90;3.78;;;;;;;9.48;95.10;101359.13;6000445;23;20437;-64
2022/06/03 04:06:01;;;;;;;4.10;3.90;;;;;;;9.61;95.12;101358.69;6022671;23;20111;-64
2022/06/03 04:08:51;;;;;;;3.88;3.75;;;;;;;10.18;93.55;101337.22;6006643;23;20031;-64
2022/06/03 04:11:32;;;;;;;3.92;3.78;;;;;;;11.78;89.12;101348.66;6019782;23;20071;-68
2022/06/03 04:14:24;;;;;;;4.50;4.30;;;;;;;13.10;82.17;101356.25;5997085;23;20023;-67
2022/06/03 04:17:08;;;;;;;4.50;4.30;;;;;;;14.19;75.25;101365.34;6011395;23;20456;-66
2022/06/03 04:19:46;;;;;;;4.50;4.30;;;;;;;15.04;71.16;101354.22;6025229;23;20289;-65
2022/06/03 04:22:46;;;;;;;5.88;5.60;;;;;;;15.69;67.39;101342.28;5998540;23;20303;-67
2022/06/03 04:25:21;;;;;;;6.15;5.85;;;;;;;16.27;64.32;101346.50;6026429;23;20511;-65
2022/06/03 04:28:18;;;;;;;4.63;4.43;;;;;;;16.56;61.83;101356.97;5987528;23;20011;-65
2022/06/03 04:31:21;;;;;;;5.13;4.90;;;;;;;16.93;60.72;101342.09;6024244;23;20203;-64
2022/06/03 04:33:51;;;;;;;5.05;4.85;;;;;;;17.47;58.35;101341.00;6024101;23;20161;-65
2022/06/03 04:36:59;;;;;;;4.85;4.65;;;;;;;17.72;56.03;101347.19;6035224;23;20077;-65
2022/06/03 04:40:04;;;;;;;5.30;5.00;;;;;;;16.98;55.75;101346.22;5993822;23;20042;-64
2022/06/03 04:42:53;;;;;;;4.88;4.68;;;;;;;16.17;58.19;101342.75;6032971;23;20037;-65
2022/06/03 04:45:45;;;;;;;5.10;4.90;;;;;;;15.76;59.28;101346.28;6017027;23;20027;-65
2022/06/03 04:48:49;;;;;;;6.22;5.93;;;;;;;16.12;60.69;101352.81;6037561;23;20042;-65
2022/06/03 04:51:59;;;;;;;5.43;5.13;;;;;;;16.50;58.51;101352.94;6028387;23;20181;-65
2022/06/03 04:54:37;;;;;;;5.65;5.35;;;;;;;17.27;56.22;101352.16;5981648;23;20034;-65
2022/06/03 04:57:32;;;;;;;6.25;5.95;;;;;;;17.68;55.45;101343.94;5998113;23;20019;-65
2022/06/03 05:00:17;;;;;;;5.93;5.65;;;;;;;16.69;52.56;101116.66;6002300;23;20031;-65
2022/06/03 05:03:21;;;;;;;5.30;5.10;;;;;;;18.00;53.24;101355.84;6036015;23;20037;-67
2022/06/03 05:06:18;;;;;;;5.57;5.28;;;;;;;18.96;51.68;101358.41;6010320;23;20059;-64
2022/06/03 05:09:07;;;;;;;5.45;5.25;;;;;;;18.36;52.20;101346.13;6029039;23;20242;-64
2022/06/03 05:11:52;;;;;;;5.47;5.20;;;;;;;19.91;49.99;101345.59;5996187;23;20090;-65
2022/06/03 05:14:37;;;;;;;5.32;5.13;;;;;;;20.77;47.44;101344.75;6018502;23;20030;-65
2022/06/03 05:17:22;;;;;;;6.53;6.22;;;;;;;21.38;46.90;101344.81;6011466;23;20083;-65
2022/06/03 05:20:05;;;;;;;5.35;5.05;;;;;;;21.91;44.29;101338.38;6032439;23;20026;-65
2022/06/03 05:22:39;;;;;;;5.70;5.40;;;;;;;22.46;43.12;101335.19;6005169;23;20019;-65
2022/06/03 05:25:32;;;;;;;6.60;6.30;;;;;;;22.61;42.67;101333.78;6029431;23;20027;-65
2022/06/03 05:28:29;;;;;;;6.17;5.87;;;;;;;22.54;42.49;101276.47;6026131;23;20223;-64
2022/06/03 05:31:31;;;;;;;5.90;5.60;;;;;;;23.13;41.69;101324.50;6008881;23;20046;-65
2022/06/03 05:34:19;;;;;;;6.05;5.75;;;;;;;23.31;42.08;101325.41;5943678;23;20026;-65
2022/06/03 05:37:08;;;;;;;5.72;5.43;;;;;;;23.28;41.54;101321.19;6021211;23;20037;-66
2022/06/03 05:39:53;;;;;;;6.10;5.80;;;;;;;23.27;41.43;101321.34;6013496;23;20015;-66
2022/06/03 05:42:57;;;;;;;6.35;6.05;;;;;;;23.54;39.63;101314.31;5999050;23;20046;-66
2022/06/03 05:45:52;;;;;;;5.90;5.60;;;;;;;23.21;38.59;101269.25;5985795;23;20043;-66
2022/06/03 05:48:33;;;;;;;6.00;5.70;;;;;;;23.58;39.05;101321.91;6027392;23;20038;-65
2022/06/03 05:51:08;;;;;;;6.95;6.57;;;;;;;23.46;38.69;101323.94;6001408;23;20029;-65
2022/06/03 05:54:12;;;;;;;6.03;5.72;;;;;;;22.94;38.38;101312.00;6015339;23;20028;-65
2022/06/03 05:57:17;;;;;;;5.93;5.63;;;;;;;22.59;38.82;101311.69;6002747;23;20039;-68
2022/06/03 06:00:18;;;;;;;5.80;5.50;;;;;;;22.92;39.12;101300.59;5969213;23;20037;-65
2022/06/03 06:03:19;;;;;;;5.80;5.50;;;;;;;23.38;39.08;101299.72;5997302;23;20350;-68
2022/06/03 06:06:15;;;;;;;5.70;5.40;;;;;;;23.78;38.43;101295.00;5988479;23;20028;-68
2022/06/03 06:08:58;;;;;;;5.90;5.60;;;;;;;24.13;37.50;101299.50;6022047;23;20090;-69
2022/06/03 06:11:53;;;;;;;5.80;5.50;;;;;;;23.97;37.57;101251.13;5993090;23;20027;-66
2022/06/03 06:14:28;;;;;;;6.00;5.70;;;;;;;24.28;37.55;101295.28;5991294;23;20027;-66
2022/06/03 06:17:00;;;;;;;5.50;5.30;;;;;;;24.09;37.81;101300.81;5999382;23;20517;-67
2022/06/03 06:19:44;;;;;;;6.03;5.65;;;;;;;23.75;37.56;101303.31;6028147;23;20027;-69
2022/06/03 06:22:23;;;;;;;6.80;6.50;;;;;;;23.49;39.11;101298.66;6015711;23;20103;-69
2022/06/03 06:24:55;;;;;;;6.00;5.70;;;;;;;22.40;39.61;101298.31;6022529;23;20105;-67
2022/06/03 06:27:57;;;;;;;5.82;5.53;;;;;;;22.01;41.46;101290.25;6013391;23;20228;-66
2022/06/03 06:30:41;;;;;;;6.13;5.80;;;;;;;20.98;43.61;101294.91;6015395;23;20029;-66
2022/06/03 06:33:14;;;;;;;7.47;7.07;;;;;;;20.99;44.44;101295.72;5989241;23;20275;-68
2022/06/03 06:36:22;;;;;;;5.53;5.32;;;;;;;20.97;44.62;101293.22;6025962;23;20102;-66
2022/06/03 06:39:07;;;;;;;5.90;5.60;;;;;;;20.96;43.81;101288.84;6050378;23;20195;-66
2022/06/03 06:42:06;;;;;;;6.18;5.80;;;;;;;20.65;45.30;101294.16;6030901;23;20026;-66
2022/06/03 06:44:35;;;;;;;6.25;5.95;;;;;;;20.25;46.50;101286.84;6061849;23;20578;-66
2022/06/03 06:47:29;;;;;;;7.38;7.03;;;;;;;20.31;45.92;101294.31;6028917;23;20008;-66
2022/06/03 06:50:22;;;;;;;5.80;5.50;;;;;;;20.41;45.25;101291.75;6065619;23;20021;-65
2022/06/03 06:53:31;;;;;;;6.00;5.70;;;;;;;20.34;45.89;101301.22;6026594;23;20033;-65
2022/06/03 06:56:21;;;;;;;6.30;6.00;;;;;;;19.98;45.82;101270.50;5968436;23;20327;-65
2022/06/03 06:58:57;;;;;;;5.68;5.35;;;;;;;20.16;46.16;101292.94;5994314;23;20018;-65
2022/06/03 07:01:49;;;;;;;5.68;5.43;;;;;;;19.08;46.13;101109.19;6031842;23;20026;-66
2022/06/03 07:04:29;;;;;;;5.85;5.55;;;;;;;20.24;46.79;101285.16;6023483;23;20046;-65
2022/06/03 07:07:19;;;;;;;5.80;5.50;;;;;;;20.19;46.31;101249.22;6055956;23;20034;-65
2022/06/03 07:09:56;;;;;;;6.05;5.75;;;;;;;20.63;44.73;101304.13;6030001;23;20536;-66
2022/06/03 07:12:33;;;;;;;5.85;5.55;;;;;;;20.67;45.02;101302.88;6056074;23;20030;-66
2022/06/03 07:15:23;;;;;;;5.50;5.30;;;;;;;20.80;44.27;101301.84;6026735;23;20034;-66
2022/06/03 07:21:11;;;;;;;6.05;5.78;;;;;;;20.97;43.15;101298.56;6028367;23;20014;-65
2022/06/03 07:23:55;;;;;;;5.45;5.15;;;;;;;20.80;43.68;101259.16;6056542;23;20591;-66
2022/06/03 07:26:35;;;;;;;5.70;5.40;;;;;;;21.24;43.52;101297.13;5999446;23;20537;-69
2022/06/03 07:29:32;;;;;;;6.43;6.13;;;;;;;21.39;42.28;101298.44;6049940;23;20014;-66
2022/06/03 07:32:01;;;;;;;6.38;6.07;;;;;;;21.49;42.19;101283.31;6020553;23;20428;-66
2022/06/03 07:34:33;;;;;;;6.05;5.75;;;;;;;21.34;40.52;101286.47;6054825;23;20328;-66
2022/06/03 07:37:24;;;;;;;6.32;5.93;;;;;;;21.43;42.58;101277.66;6046308;23;20048;-66
2022/06/03 07:40:09;;;;;;;5.75;5.45;;;;;;;21.45;42.52;101281.06;6033908;23;20029;-66
2022/06/03 07:42:49;;;;;;;5.50;5.20;;;;;;;21.43;41.53;101280.34;6063535;23;20024;-70
2022/06/03 07:45:40;;;;;;;6.57;6.28;;;;;;;21.07;42.58;101274.59;6051005;23;20037;-66
2022/06/03 07:48:16;;;;;;;6.55;6.25;;;;;;;20.48;42.66;101246.72;6020311;23;20019;-66
2022/06/03 07:50:54;;;;;;;5.85;5.55;;;;;;;20.65;43.20;101254.16;6046066;23;20077;-65
2022/06/03 07:53:43;;;;;;;5.20;5.00;;;;;;;20.86;43.98;101258.63;6048517;23;20201;-65
2022/06/03 07:56:09;;;;;;;6.88;6.57;;;;;;;20.79;43.47;101262.78;6046045;23;20026;-65
2022/06/03 07:58:37;;;;;;;5.90;5.55;;;;;;;20.92;42.44;101258.06;6041634;23;20018;-65
2022/06/03 08:01:16;;;;;;;6.63;6.32;;;;;;;20.81;42.79;101207.50;6048206;23;20022;-65
2022/06/03 08:03:43;;;;;;;5.30;5.10;;;;;;;20.81;43.81;101251.03;6049295;23;20564;-65
2022/06/03 08:06:09;;;;;;;7.38;6.97;;;;;;;20.63;44.41;101216.13;6050372;23;20105;-66
2022/06/03 08:11:31;;;;;;;5.90;5.60;;;;;;;20.55;44.07;101239.91;6049642;23;20022;-65
2022/06/03 08:13:59;;;;;;;5.43;5.20;;;;;;;20.59;43.49;101237.84;6052349;23;20382;-65
2022/06/03 08:16:40;;;;;;;5.30;5.10;;;;;;;20.92;42.77;101242.91;6025696;23;20377;-66
2022/06/03 08:19:21;;;;;;;7.38;6.97;;;;;;;21.14;41.31;101241.03;6044832;23;20037;-65
2022/06/03 08:21:53;;;;;;;5.70;5.40;;;;;;;21.29;41.82;101238.84;6007152;23;20104;-66
2022/06/03 08:24:30;;;;;;;6.20;5.22;;;;;;;21.17;41.67;101239.91;6024659;23;20022;-68
2022/06/03 08:27:04;;;;;;;5.50;5.28;;;;;;;21.13;41.38;101236.69;6051490;23;20038;-70
2022/06/03 08:29:36;;;;;;;5.78;5.47;;;;;;;21.59;40.81;101237.94;6027763;23;20021;-69
2022/06/03 08:32:11;;;;;;;6.97;6.68;;;;;;;21.32;40.87;101238.56;6045966;23;20081;-70
2022/06/03 08:34:43;;;;;;;5.40;5.20;;;;;;;21.46;40.94;101237.34;6033742;23;20459;-69
2022/06/03 08:37:32;;;;;;;6.25;5.95;;;;;;;21.44;41.79;101233.97;5994678;23;20003;-70
2022/06/03 08:40:02;;;;;;;5.88;5.55;;;;;;;21.40;41.47;101240.53;5999732;23;20450;-67
2022/06/03 08:42:48;;;;;;;5.40;5.20;;;;;;;21.74;40.33;101249.06;6022301;23;20029;-69
2022/06/03 08:45:20;;;;;;;5.90;5.60;;;;;;;21.45;40.04;101254.38;6006895;23;20097;-69
2022/06/03 08:47:54;;;;;;;5.20;5.00;;;;;;;21.47;39.46;101241.72;6022892;23;20489;-68
2022/06/03 08:51:05;;;;;;;5.65;5.35;;;;;;;21.61;39.43;101237.78;6019938;23;20022;-69
2022/06/03 08:53:46;;;;;;;5.40;5.20;;;;;;;21.67;39.92;101226.56;5882386;24;20021;-70
2022/06/03 08:56:22;;;;;;;6.65;6.35;;;;;;;21.78;39.03;101229.09;5982893;23;20677;-68
2022/06/03 08:58:56;;;;;;;5.30;5.10;;;;;;;21.96;39.11;101221.22;6023622;23;20188;-69
2022/06/03 09:01:25;;;;;;;5.20;5.00;;;;;;;22.05;39.44;101220.38;5969174;23;20031;-70
2022/06/03 09:04:09;;;;;;;10.35;5.20;;;;;;;22.09;39.57;101221.78;6019089;23;20192;-69
2022/06/03 09:06:39;;;;;;;5.40;5.20;;;;;;;22.43;38.40;101217.78;5994710;23;20495;-68
2022/06/03 09:09:11;;;;;;;6.78;6.47;;;;;;;22.55;38.71;101197.94;6021610;23;20038;-68
2022/06/03 09:11:40;;;;;;;5.97;5.32;;;;;;;22.63;36.61;101222.09;6007702;23;20018;-68
2022/06/03 09:14:12;;;;;;;6.43;6.13;;;;;;;22.71;36.70;101218.69;6030170;23;20026;-70
2022/06/03 09:16:40;;;;;;;5.55;5.35;;;;;;;22.94;35.49;101184.38;6026004;23;20029;-66
2022/06/03 09:19:22;;;;;;;7.05;6.75;;;;;;;23.75;35.71;101229.09;5993856;23;20019;-66
2022/06/03 09:21:51;;;;;;;5.45;5.25;;;;;;;23.49;35.76;101227.19;6025884;23;20025;-66
2022/06/03 09:24:31;;;;;;;5.60;5.40;;;;;;;23.03;37.18;101220.13;6000562;23;20077;-66
2022/06/03 09:27:02;;;;;;;5.78;5.47;;;;;;;22.81;37.74;101215.97;6024390;23;20105;-65
2022/06/03 09:29:29;;;;;;;5.78;5.47;;;;;;;22.72;38.77;101223.06;5997576;23;20030;-66
2022/06/03 09:32:02;;;;;;;5.70;5.40;;;;;;;22.50;37.27;101221.56;6020855;23;20025;-70
2022/06/03 09:34:44;;;;;;;5.70;5.40;;;;;;;22.24;38.32;101222.19;6039187;23;20025;-66
2022/06/03 09:37:24;;;;;;;6.90;6.60;;;;;;;22.36;38.21;101212.19;6041785;23;20405;-66
2022/06/03 09:39:52;;;;;;;5.60;5.25;;;;;;;22.41;38.19;101209.06;6023142;23;20074;-66
2022/06/03 09:42:20;;;;;;;5.40;5.20;;;;;;;22.10;39.72;101161.97;6037042;23;20029;-65
2022/06/03 09:44:50;;;;;;;5.68;5.38;;;;;;;22.37;38.30;101187.13;6015741;23;20031;-66
2022/06/03 09:47:21;;;;;;;5.68;5.47;;;;;;;22.57;38.17;101152.28;6010973;23;20479;-66
2022/06/03 09:49:51;;;;;;;5.47;5.20;;;;;;;23.23;37.35;101178.03;6059656;23;20510;-66
2022/06/03 09:52:23;;;;;;;5.72;5.45;;;;;;;23.82;36.11;101189.19;6020965;23;20100;-66
2022/06/03 09:54:52;;;;;;;5.40;5.20;;;;;;;24.02;35.85;101165.72;6054809;23;20876;-66
2022/06/03 09:57:27;;;;;;;5.80;5.50;;;;;;;24.04;36.06;101185.16;6012794;23;20033;-66
2022/06/03 10:00:00;;;;;;;5.85;5.55;;;;;;;24.09;36.97;101185.50;6049950;23;20803;-66
2022/06/03 10:02:27;;;;;;;5.95;5.65;;;;;;;23.55;37.50;101165.94;6045777;23;20022;-67
2022/06/03 10:04:54;;;;;;;5.75;5.45;;;;;;;24.08;37.50;101163.22;6031218;23;20026;-66
2022/06/03 10:07:25;;;;;;;5.38;5.15;;;;;;;23.98;36.22;101126.81;6034096;23;21153;-66
2022/06/03 10:12:49;;;;;;;5.90;5.60;;;;;;;24.56;36.59;101184.34;6051668;23;20037;-66
2022/06/03 10:15:39;;;;;;;6.20;5.90;;;;;;;24.74;36.41;101189.63;6046243;23;20478;-66
2022/06/03 10:18:31;;;;;;;6.68;6.38;;;;;;;24.67;35.65;101176.84;6040913;23;20050;-66
2022/06/03 10:21:20;;;;;;;6.30;5.78;;;;;;;24.45;35.26;101175.50;6016018;23;20514;-66
2022/06/03 10:23:52;;;;;;;5.90;5.60;;;;;;;24.44;35.76;101173.00;6021661;23;20571;-64
2022/06/03 10:26:28;;;;;;;5.93;5.63;;;;;;;25.08;36.08;101168.94;6046814;23;20110;-66
2022/06/03 10:28:57;;;;;;;5.80;5.50;;;;;;;25.22;33.98;101170.19;6020276;23;20022;-66
2022/06/03 10:31:30;;;;;;;5.47;5.28;;;;;;;25.84;34.37;101160.84;6027128;23;20085;-67
2022/06/03 10:34:21;;;;;;;5.53;5.22;;;;;;;26.10;33.68;101162.50;6049971;23;20034;-67
2022/06/03 10:36:50;;;;;;;6.07;5.70;;;;;;;25.91;33.17;101164.53;6047279;23;20018;-68
2022/06/03 10:39:19;;;;;;;6.20;5.90;;;;;;;25.19;32.92;101021.91;6016803;23;20850;-69
2022/06/03 10:41:51;;;;;;;5.72;5.43;;;;;;;25.38;34.02;101133.59;6058911;23;20049;-67
2022/06/03 10:44:24;;;;;;;16.42;15.63;;;;;;;24.89;34.85;101123.56;5902238;23;20363;-69
2022/06/03 10:47:15;;;;;;;6.57;6.28;;;;;;;25.17;34.73;101158.22;6053053;23;20682;-67
2022/06/03 10:49:57;;;;;;;5.75;5.45;;;;;;;25.53;33.85;101144.53;6001661;23;20029;-68
2022/06/03 11:01:09;;;;;;;6.00;5.70;;;;;;;25.75;34.12;101140.34;6017758;23;20101;-67
2022/06/03 11:03:39;;;;;;;6.15;5.85;;;;;;;25.91;35.26;101136.81;6021680;23;20057;-70
2022/06/03 11:06:08;;;;;;;6.78;6.47;;;;;;;26.02;33.98;101142.69;6048982;23;20529;-67
2022/06/03 11:08:47;;;;;;;5.65;5.38;;;;;;;26.05;32.71;101134.28;6002877;23;20033;-69
2022/06/03 11:11:14;;;;;;;6.78;6.47;;;;;;;25.94;34.87;101126.56;6039288;23;20257;-69
2022/06/03 11:13:40;;;;;;;5.70;5.40;;;;;;;25.47;35.04;101122.69;6044970;23;20038;-68
2022/06/03 11:16:21;;;;;;;7.03;6.72;;;;;;;25.43;35.73;101125.88;6026105;23;20102;-68
2022/06/03 11:18:49;;;;;;;5.60;5.30;;;;;;;23.48;35.89;100898.69;6037581;23;20026;-69
2022/06/03 11:21:27;;;;;;;6.30;6.00;;;;;;;25.13;35.18;101097.78;6047131;23;20034;-67
2022/06/03 11:23:57;;;;;;;5.90;5.60;;;;;;;26.59;32.64;101125.56;6048227;23;20010;-68
2022/06/03 11:26:31;;;;;;;5.65;5.38;;;;;;;27.40;32.13;101128.84;6046248;23;20022;-67
2022/06/03 11:29:07;;;;;;;5.65;5.43;;;;;;;27.55;31.80;101123.47;6023748;23;20099;-69
2022/06/03 11:31:39;;;;;;;5.95;5.65;;;;;;;26.94;33.24;101109.06;6050510;23;20101;-68
2022/06/03 11:34:14;;;;;;;7.10;6.70;;;;;;;25.97;33.02;101053.59;6012569;23;20067;-68
2022/06/03 11:37:08;;;;;;;5.90;5.60;;;;;;;26.20;33.04;101080.63;6046539;23;20323;-69
2022/06/03 11:39:40;;;;;;;6.03;5.72;;;;;;;26.35;33.80;101055.66;6024830;23;20023;-67
2022/06/03 11:42:14;;;;;;;6.57;6.28;;;;;;;26.45;33.76;101053.59;6021500;23;20093;-67
2022/06/03 11:45:18;;;;;;;6.00;5.50;;;;;;;26.23;33.29;101090.19;6055732;23;20064;-68
2022/06/03 11:47:52;;;;;;;5.70;5.40;;;;;;;26.51;33.65;101089.75;5932075;24;20104;-68
2022/06/03 11:50:22;;;;;;;5.80;5.50;;;;;;;26.31;33.63;101075.88;6015446;23;20690;-68
2022/06/03 11:52:52;;;;;;;5.57;5.30;;;;;;;26.27;33.39;101062.75;6037466;23;20058;-68
2022/06/03 11:55:20;;;;;;;5.90;5.53;;;;;;;26.23;32.23;101060.59;6050813;23;20844;-68
2022/06/03 11:58:11;;;;;;;5.95;5.65;;;;;;;26.93;31.90;101075.91;6053454;23;20026;-68
2022/06/03 12:00:45;;;;;;;5.70;5.40;;;;;;;27.23;32.56;101074.19;6034387;23;20037;-67
2022/06/03 12:03:51;;;;;;;5.57;5.28;;;;;;;26.92;33.07;101071.56;6051579;23;20653;-68
2022/06/03 12:06:24;;;;;;;6.32;6.03;;;;;;;26.81;34.89;101064.69;6028288;23;20081;-68
2022/06/03 12:08:53;;;;;;;5.80;5.50;;;;;;;26.35;34.74;101061.88;6039246;23;20038;-68
2022/06/03 12:14:25;;;;;;;5.50;5.30;;;;;;;25.64;38.95;101058.19;6024092;23;20021;-67
2022/06/03 12:16:58;;;;;;;5.55;5.30;;;;;;;25.67;38.29;101068.59;6051953;23;20750;-68
2022/06/03 12:19:44;;;;;;;5.70;5.40;;;;;;;25.79;37.61;101061.84;6044329;23;20062;-67
2022/06/03 12:22:21;;;;;;;5.78;5.47;;;;;;;26.18;36.63;101063.81;6054842;23;20038;-69
2022/06/03 12:25:41;;;;;;;7.25;6.85;;;;;;;25.75;37.26;101060.50;6044386;23;20018;-68
2022/06/03 12:28:33;;;;;;;6.78;6.47;;;;;;;26.10;35.68;101069.22;6043539;23;20365;-68
2022/06/03 12:31:01;;;;;;;6.95;6.57;;;;;;;25.72;36.84;101022.38;6022600;23;20029;-69
2022/06/03 12:33:37;;;;;;;5.70;5.40;;;;;;;25.70;37.45;101019.88;6045646;23;20230;-68
2022/06/03 12:36:05;;;;;;;6.93;6.63;;;;;;;25.42;37.04;101068.63;6000990;23;20042;-70
2022/06/03 12:38:40;;;;;;;5.60;5.40;;;;;;;25.25;37.94;101053.50;6028533;23;20034;-68
2022/06/03 12:41:07;;;;;;;6.47;6.18;;;;;;;24.58;37.42;100963.13;6020749;23;20668;-69
2022/06/03 12:43:46;;;;;;;6.22;5.68;;;;;;;25.02;39.24;101067.56;6034229;23;20015;-69
2022/06/03 12:46:37;;;;;;;7.03;6.70;;;;;;;25.26;38.99;101060.56;5995070;23;20031;-70
2022/06/03 12:49:16;;;;;;;6.80;6.50;;;;;;;26.04;38.01;101069.88;5998028;23;20049;-68
2022/06/03 12:52:03;;;;;;;5.90;5.60;;;;;;;25.66;38.05;101062.38;5996714;23;20027;-69
2022/06/03 12:54:32;;;;;;;5.80;5.50;;;;;;;25.72;37.72;101066.25;6022752;23;20107;-69
2022/06/03 12:57:07;;;;;;;6.18;5.88;;;;;;;25.83;37.76;101063.19;6006031;23;20015;-70
2022/06/03 12:59:52;;;;;;;5.65;5.40;;;;;;;25.70;37.87;101064.72;6030641;23;20030;-70
2022/06/03 13:02:23;;;;;;;5.70;5.40;;;;;;;25.36;37.90;101057.69;5993886;23;20212;-69
2022/06/03 13:04:55;;;;;;;6.15;5.80;;;;;;;25.78;38.68;101065.56;6029342;23;20015;-70